createdAt,value
2019-06-10T00:01:40.747Z,18.91
2019-06-10T00:04:08.764Z,18.93
2019-06-10T00:06:34.707Z,18.89
2019-06-10T00:09:04.636Z,18.89
2019-06-10T00:11:31.509Z,18.92
2019-06-10T00:13:58.586Z,18.90
2019-06-10T00:16:24.816Z,18.95
2019-06-10T00:18:51.207Z,19.02
2019-06-10T00:21:17.392Z,19.02
2019-06-10T00:23:43.628Z,18.87
2019-06-10T00:26:12.202Z,18.79
2019-06-10T00:28:38.008Z,18.88
2019-06-10T00:31:05.386Z,18.93
2019-06-10T00:33:32.438Z,18.98
2019-06-10T00:35:58.910Z,18.90
2019-06-10T00:38:25.084Z,18.91
2019-06-10T00:40:51.486Z,18.93
2019-06-10T00:43:18.089Z,18.95
2019-06-10T00:45:44.555Z,18.86
2019-06-10T00:48:24.261Z,18.88
2019-06-10T00:50:41.372Z,18.86
2019-06-10T00:53:07.599Z,18.79
2019-06-10T00:55:34.092Z,18.71
2019-06-10T00:58:01.442Z,18.78
2019-06-10T01:00:28.821Z,18.85
2019-06-10T01:03:00.676Z,18.79
2019-06-10T01:05:26.529Z,18.76
2019-06-10T01:07:52.778Z,18.85
2019-06-10T01:10:21.054Z,18.69
2019-06-10T01:12:47.272Z,18.68
2019-06-10T01:15:15.223Z,18.68
2019-06-10T01:17:41.810Z,18.64
2019-06-10T01:20:08.362Z,18.59
2019-06-10T01:22:34.574Z,18.54
2019-06-10T01:25:01.683Z,18.44
2019-06-10T01:27:27.948Z,18.44
2019-06-10T01:29:54.048Z,18.47
2019-06-10T01:32:21.645Z,18.32
2019-06-10T01:34:50.669Z,18.37
2019-06-10T01:37:17.506Z,18.39
2019-06-10T01:39:43.934Z,18.35
2019-06-10T01:42:11.358Z,18.37
2019-06-10T01:44:38.234Z,18.37
2019-06-10T01:47:04.445Z,18.43
2019-06-10T01:49:30.942Z,18.32
2019-06-10T01:51:57.309Z,18.36
2019-06-10T01:54:23.399Z,18.33
2019-06-10T01:56:51.062Z,18.31
2019-06-10T01:59:18.708Z,18.17
2019-06-10T02:01:46.851Z,18.14
2019-06-10T02:04:16.089Z,18.14
2019-06-10T02:06:41.298Z,18.13
2019-06-10T02:09:08.892Z,18.11
2019-06-10T02:11:36.081Z,18.10
2019-06-10T02:14:04.718Z,18.08
2019-06-10T02:16:32.547Z,18.11
2019-06-10T02:19:01.457Z,18.04
2019-06-10T02:21:27.042Z,18.01
2019-06-10T02:23:53.659Z,18.15
2019-06-10T02:26:22.242Z,18.20
2019-06-10T02:28:48.120Z,18.14
2019-06-10T02:31:18.731Z,18.03
2019-06-10T02:33:42.510Z,18.04
2019-06-10T02:36:08.788Z,17.98
2019-06-10T02:38:39.251Z,17.93
2019-06-10T02:41:04.670Z,17.87
2019-06-10T02:43:36.649Z,18.00
2019-06-10T02:45:59.591Z,18.01
2019-06-10T02:48:30.332Z,17.98
2019-06-10T02:50:57.819Z,17.92
2019-06-10T02:53:30.547Z,17.88
2019-06-10T02:55:53.885Z,18.05
2019-06-10T02:58:23.144Z,17.93
2019-06-10T03:00:49.301Z,17.87
2019-06-10T03:03:22.792Z,17.73
2019-06-10T03:05:46.645Z,17.79
2019-06-10T03:08:13.165Z,17.79
2019-06-10T03:10:39.402Z,17.75
2019-06-10T03:13:05.530Z,17.77
2019-06-10T03:15:36.779Z,17.72
2019-06-10T03:18:03.108Z,17.74
2019-06-10T03:20:29.231Z,17.77
2019-06-10T03:22:55.450Z,17.76
2019-06-10T03:25:23.302Z,17.67
2019-06-10T03:27:49.642Z,17.55
2019-06-10T03:30:22.077Z,17.49
2019-06-10T03:32:46.813Z,17.50
2019-06-10T03:35:13.293Z,17.50
2019-06-10T03:37:42.231Z,17.47
2019-06-10T03:40:08.101Z,17.49
2019-06-10T03:42:34.427Z,17.46
2019-06-10T03:45:03.155Z,17.44
2019-06-10T03:47:29.039Z,17.43
2019-06-10T03:49:56.301Z,17.45
2019-06-10T03:52:25.237Z,17.37
2019-06-10T03:54:52.477Z,17.41
2019-06-10T03:57:19.246Z,17.42
2019-06-10T03:59:45.611Z,17.47
2019-06-10T04:02:12.819Z,17.42
2019-06-10T04:04:39.077Z,17.38
2019-06-10T04:07:05.601Z,17.42
2019-06-10T04:09:33.069Z,17.47
2019-06-10T04:12:01.909Z,17.52
2019-06-10T04:14:28.513Z,17.47
2019-06-10T04:16:54.719Z,17.38
2019-06-10T04:19:25.434Z,17.41
2019-06-10T04:21:53.234Z,17.37
2019-06-10T04:24:22.293Z,17.40
2019-06-10T04:26:47.879Z,17.42
2019-06-10T04:29:14.063Z,17.50
2019-06-10T04:31:42.513Z,17.42
2019-06-10T04:34:08.968Z,17.36
2019-06-10T04:36:35.193Z,17.39
2019-06-10T04:39:03.243Z,17.39
2019-06-10T04:41:29.637Z,17.35
2019-06-10T04:43:56.083Z,17.32
2019-06-10T04:46:24.939Z,17.32
2019-06-10T04:48:53.276Z,17.41
2019-06-10T04:51:20.759Z,17.43
2019-06-10T04:53:47.616Z,17.43
2019-06-10T04:56:16.725Z,17.32
2019-06-10T04:58:43.454Z,17.37
2019-06-10T05:01:12.019Z,17.47
2019-06-10T05:03:37.859Z,17.56
2019-06-10T05:06:04.163Z,17.58
2019-06-10T05:08:33.303Z,17.77
2019-06-10T05:10:58.638Z,17.79
2019-06-10T05:13:26.512Z,17.80
2019-06-10T05:15:53.265Z,17.84
2019-06-10T05:18:19.559Z,17.81
2019-06-10T05:20:54.941Z,17.84
2019-06-10T05:23:13.905Z,17.93
2019-06-10T05:25:42.652Z,17.86
2019-06-10T05:28:08.716Z,17.86
2019-06-10T05:30:34.913Z,17.93
2019-06-10T05:33:02.977Z,17.98
2019-06-10T05:35:29.962Z,18.05
2019-06-10T05:37:57.000Z,18.18
2019-06-10T05:40:24.797Z,18.29
2019-06-10T05:42:52.849Z,18.52
2019-06-10T05:45:19.204Z,18.61
2019-06-10T05:47:45.444Z,18.75
2019-06-10T05:50:13.634Z,18.64
2019-06-10T05:52:39.840Z,18.63
2019-06-10T05:55:06.070Z,18.65
2019-06-10T05:57:34.180Z,18.65
2019-06-10T06:00:04.161Z,18.65
2019-06-10T06:02:29.820Z,18.67
2019-06-10T06:04:56.427Z,18.69
2019-06-10T06:07:22.670Z,18.77
2019-06-10T06:09:49.083Z,18.72
2019-06-10T06:12:15.328Z,18.70
2019-06-10T06:14:42.632Z,18.80
2019-06-10T06:17:09.073Z,18.80
2019-06-10T06:19:37.355Z,18.75
2019-06-10T06:22:03.603Z,18.78
2019-06-10T06:24:29.823Z,18.86
2019-06-10T06:26:57.248Z,18.91
2019-06-10T06:29:23.499Z,19.09
2019-06-10T06:31:52.090Z,19.17
2019-06-10T06:34:22.355Z,19.10
2019-06-10T06:36:48.030Z,19.25
2019-06-10T06:39:14.749Z,19.31
2019-06-10T06:41:42.704Z,19.38
2019-06-10T06:44:09.322Z,19.43
2019-06-10T06:46:37.799Z,19.44
2019-06-10T06:49:04.295Z,19.57
2019-06-10T06:51:45.678Z,19.47
2019-06-10T06:53:58.785Z,19.45
2019-06-10T06:56:25.043Z,19.53
2019-06-10T06:58:52.442Z,19.44
2019-06-10T07:01:21.977Z,19.51
2019-06-10T07:03:47.428Z,19.63
2019-06-10T07:06:14.134Z,19.68
2019-06-10T07:08:41.518Z,19.89
2019-06-10T07:11:10.641Z,19.88
2019-06-10T07:13:39.562Z,19.85
2019-06-10T07:16:06.636Z,19.97
2019-06-10T07:18:38.801Z,19.96
2019-06-10T07:21:02.677Z,20.05
2019-06-10T07:23:29.110Z,20.06
2019-06-10T07:25:56.961Z,20.11
2019-06-10T07:28:23.348Z,20.10
2019-06-10T07:30:52.846Z,20.08
2019-06-10T07:33:17.527Z,20.06
2019-06-10T07:35:45.354Z,20.07
2019-06-10T07:38:12.268Z,20.15
2019-06-10T07:40:39.225Z,20.14
2019-06-10T07:43:05.509Z,20.30
2019-06-10T07:45:33.768Z,20.18
2019-06-10T07:47:59.761Z,19.89
2019-06-10T07:50:26.059Z,20.30
2019-06-10T07:52:52.912Z,20.60
2019-06-10T07:55:19.304Z,20.81
2019-06-10T07:57:45.747Z,20.76
2019-06-10T08:00:13.779Z,20.55
2019-06-10T08:02:42.838Z,20.89
2019-06-10T08:05:08.655Z,21.05
2019-06-10T08:07:35.326Z,21.49
2019-06-10T08:10:03.573Z,21.72
2019-06-10T08:12:32.400Z,21.47
2019-06-10T08:14:58.181Z,21.73
2019-06-10T08:17:24.313Z,21.62
2019-06-10T08:19:53.831Z,22.06
2019-06-10T08:22:31.188Z,22.14
2019-06-10T08:24:48.007Z,21.62
2019-06-10T08:27:14.927Z,21.30
2019-06-10T08:29:46.121Z,21.55
2019-06-10T08:32:12.944Z,21.52
2019-06-10T08:34:40.096Z,21.25
2019-06-10T08:37:07.151Z,21.28
2019-06-10T08:39:33.683Z,21.05
2019-06-10T08:41:59.987Z,21.25
2019-06-10T08:44:26.442Z,21.63
2019-06-10T08:46:52.864Z,21.74
2019-06-10T08:49:19.384Z,21.64
2019-06-10T08:51:49.969Z,21.78
2019-06-10T08:54:14.741Z,22.38
2019-06-10T08:56:45.145Z,22.56
2019-06-10T08:59:09.493Z,21.37
2019-06-10T09:01:37.728Z,21.60
2019-06-10T09:04:05.065Z,21.42
2019-06-10T09:06:32.998Z,21.41
2019-06-10T09:08:59.535Z,21.91
2019-06-10T09:11:25.799Z,22.57
2019-06-10T09:13:53.208Z,23.12
2019-06-10T09:16:19.828Z,23.45
2019-06-10T09:18:49.084Z,24.01
2019-06-10T09:21:14.430Z,24.44
2019-06-10T09:23:43.210Z,24.71
2019-06-10T09:26:08.906Z,24.66
2019-06-10T09:28:35.152Z,24.79
2019-06-10T09:31:04.302Z,24.45
2019-06-10T09:33:29.675Z,24.90
2019-06-10T09:35:56.350Z,24.66
2019-06-10T09:38:22.706Z,24.74
2019-06-10T09:41:00.493Z,24.83
2019-06-10T09:43:22.575Z,24.30
2019-06-10T09:45:50.379Z,24.03
2019-06-10T09:48:22.872Z,24.23
2019-06-10T09:50:51.379Z,23.96
2019-06-10T09:53:30.190Z,23.45
2019-06-10T09:55:49.104Z,24.09
2019-06-10T09:58:14.368Z,24.04
2019-06-10T10:00:49.399Z,24.78
2019-06-10T10:03:15.473Z,25.65
2019-06-10T10:05:54.613Z,25.68
2019-06-10T10:08:12.584Z,25.59
2019-06-10T10:10:39.088Z,25.42
2019-06-10T10:13:06.231Z,25.61
2019-06-10T10:15:34.489Z,25.50
2019-06-10T10:18:05.450Z,25.23
2019-06-10T10:20:34.095Z,25.26
2019-06-10T10:23:02.522Z,23.70
2019-06-10T10:25:28.272Z,24.07
2019-06-10T10:27:57.594Z,23.94
2019-06-10T10:30:24.539Z,23.81
2019-06-10T10:32:52.736Z,24.27
2019-06-10T10:35:19.547Z,24.87
2019-06-10T10:37:46.410Z,24.66
2019-06-10T10:40:13.126Z,24.66
2019-06-10T10:42:47.701Z,24.92
2019-06-10T10:45:13.058Z,25.62
2019-06-10T10:47:38.945Z,24.79
2019-06-10T10:50:05.528Z,24.94
2019-06-10T10:52:33.070Z,24.46
2019-06-10T10:55:06.974Z,24.85
2019-06-10T10:57:33.412Z,24.44
2019-06-10T11:00:03.173Z,24.39
2019-06-10T11:02:29.189Z,24.90
2019-06-10T11:04:57.053Z,24.36
2019-06-10T11:07:23.731Z,23.79
2019-06-10T11:09:50.933Z,23.69
2019-06-10T11:12:19.726Z,24.69
2019-06-10T11:14:46.999Z,25.63
2019-06-10T11:17:13.552Z,26.04
2019-06-10T11:19:39.751Z,26.09
2019-06-10T11:22:06.099Z,25.82
2019-06-10T11:24:37.864Z,25.69
2019-06-10T11:27:02.982Z,26.81
2019-06-10T11:29:28.804Z,27.53
2019-06-10T11:31:57.360Z,27.88
2019-06-10T11:34:24.180Z,28.20
2019-06-10T11:36:54.400Z,27.76
2019-06-10T11:39:19.213Z,27.53
2019-06-10T11:41:46.573Z,27.15
2019-06-10T11:44:13.046Z,27.12
2019-06-10T11:46:39.278Z,26.74
2019-06-10T11:49:05.627Z,25.96
2019-06-10T11:51:31.967Z,25.21
2019-06-10T11:53:58.939Z,25.53
2019-06-10T11:56:25.316Z,25.54
2019-06-10T11:58:55.149Z,25.62
2019-06-10T12:01:22.846Z,26.00
2019-06-10T12:03:48.735Z,26.47
2019-06-10T12:06:15.133Z,27.02
2019-06-10T12:08:43.838Z,27.40
2019-06-10T12:11:12.657Z,27.52
2019-06-10T12:13:38.356Z,27.27
2019-06-10T12:16:51.435Z,27.15
2019-06-10T12:18:33.372Z,26.88
2019-06-10T12:21:03.539Z,26.40
2019-06-10T12:23:28.281Z,25.91
2019-06-10T12:25:56.711Z,26.12
2019-06-10T12:28:22.778Z,25.76
2019-06-10T12:30:51.188Z,26.06
2019-06-10T12:33:21.427Z,26.17
2019-06-10T12:35:46.160Z,26.44
2019-06-10T12:38:13.800Z,26.32
2019-06-10T12:40:42.751Z,26.48
2019-06-10T12:43:08.536Z,26.81
2019-06-10T12:45:34.984Z,27.44
2019-06-10T12:48:05.046Z,27.47
2019-06-10T12:50:29.358Z,27.70
2019-06-10T12:52:56.505Z,27.14
2019-06-10T12:55:37.901Z,27.14
2019-06-10T12:57:53.284Z,26.83
2019-06-10T13:00:26.207Z,26.55
2019-06-10T13:02:53.021Z,26.60
2019-06-10T13:05:18.849Z,26.54
2019-06-10T13:07:45.781Z,26.24
2019-06-10T13:10:15.788Z,26.33
2019-06-10T13:12:42.935Z,26.60
2019-06-10T13:15:32.850Z,26.65
2019-06-10T13:18:00.292Z,25.97
2019-06-10T13:20:26.590Z,26.20
2019-06-10T13:22:52.939Z,26.14
2019-06-10T13:25:19.207Z,26.25
2019-06-10T13:27:45.706Z,26.27
2019-06-10T13:30:13.474Z,26.43
2019-06-10T13:32:39.799Z,26.33
2019-06-10T13:35:07.625Z,26.63
2019-06-10T13:37:34.344Z,26.74
2019-06-10T13:40:04.571Z,26.40
2019-06-10T13:42:33.224Z,26.55
2019-06-10T13:44:57.829Z,26.78
2019-06-10T13:47:26.093Z,27.24
2019-06-10T13:49:53.236Z,27.74
2019-06-10T13:52:19.673Z,27.61
2019-06-10T13:54:46.194Z,27.25
2019-06-10T13:57:13.845Z,26.77
2019-06-10T13:59:45.117Z,26.48
2019-06-10T14:02:10.294Z,26.26
2019-06-10T14:04:36.381Z,26.21
2019-06-10T14:07:07.399Z,25.96
2019-06-10T14:09:39.903Z,25.88
2019-06-10T14:12:09.107Z,25.83
2019-06-10T14:14:36.403Z,25.61
2019-06-10T14:17:03.921Z,25.44
2019-06-10T14:19:32.348Z,25.35
2019-06-10T14:21:58.609Z,25.50
2019-06-10T14:24:24.907Z,25.48
2019-06-10T14:26:53.179Z,25.34
2019-06-10T14:29:19.403Z,25.24
2019-06-10T14:31:49.124Z,25.21
2019-06-10T14:34:18.805Z,25.20
2019-06-10T14:36:45.365Z,25.31
2019-06-10T14:39:13.123Z,25.38
2019-06-10T14:41:39.752Z,25.44
2019-06-10T14:44:06.817Z,25.27
2019-06-10T14:46:33.319Z,25.47
2019-06-10T14:48:59.595Z,25.62
2019-06-10T14:51:25.918Z,25.59
2019-06-10T14:53:52.324Z,25.35
2019-06-10T14:56:19.754Z,25.47
2019-06-10T14:58:46.399Z,25.58
2019-06-10T15:01:19.710Z,25.68
2019-06-10T15:03:42.950Z,25.72
2019-06-10T15:06:09.546Z,25.79
2019-06-10T15:08:36.042Z,25.83
2019-06-10T15:11:02.329Z,25.77
2019-06-10T15:13:28.455Z,25.81
2019-06-10T15:15:54.884Z,25.88
2019-06-10T15:18:23.749Z,25.64
2019-06-10T15:20:49.517Z,25.49
2019-06-10T15:23:18.670Z,25.40
2019-06-10T15:25:52.409Z,25.19
2019-06-10T15:28:14.166Z,25.28
2019-06-10T15:30:43.009Z,25.45
2019-06-10T15:33:08.698Z,25.50
2019-06-10T15:35:36.783Z,25.64
2019-06-10T15:38:04.197Z,25.62
2019-06-10T15:40:32.513Z,25.64
2019-06-10T15:42:58.903Z,25.64
2019-06-10T15:45:25.140Z,25.56
2019-06-10T15:47:53.133Z,25.48
2019-06-10T15:50:21.168Z,25.55
2019-06-10T15:52:48.078Z,25.57
2019-06-10T15:55:33.467Z,25.47
2019-06-10T15:57:46.045Z,25.66
2019-06-10T16:00:17.689Z,25.67
2019-06-10T16:02:39.712Z,25.51
2019-06-10T16:05:06.239Z,25.56
2019-06-10T16:07:32.609Z,25.46
2019-06-10T16:09:58.766Z,25.33
2019-06-10T16:12:26.890Z,24.87
2019-06-10T16:14:53.369Z,24.79
2019-06-10T16:17:21.028Z,24.98
2019-06-10T16:19:47.571Z,24.69
2019-06-10T16:22:14.188Z,24.64
2019-06-10T16:24:42.298Z,24.11
2019-06-10T16:27:08.593Z,24.13
2019-06-10T16:29:34.948Z,24.23
2019-06-10T16:32:02.484Z,24.27
2019-06-10T16:34:29.202Z,24.24
2019-06-10T16:36:55.571Z,23.65
2019-06-10T16:39:24.194Z,22.81
2019-06-10T16:41:52.295Z,22.71
2019-06-10T16:44:19.864Z,22.71
2019-06-10T16:46:46.794Z,22.30
2019-06-10T16:49:13.346Z,22.13
2019-06-10T16:51:43.048Z,22.08
2019-06-10T16:54:09.594Z,21.80
2019-06-10T16:56:35.924Z,21.40
2019-06-10T16:59:02.956Z,21.21
2019-06-10T17:01:30.955Z,21.15
2019-06-10T17:03:57.639Z,21.09
2019-06-10T17:06:25.517Z,21.08
2019-06-10T17:08:52.359Z,21.09
2019-06-10T17:11:18.860Z,21.05
2019-06-10T17:13:45.262Z,21.12
2019-06-10T17:16:12.752Z,21.17
2019-06-10T17:18:39.343Z,21.21
2019-06-10T17:21:05.724Z,21.26
2019-06-10T17:23:36.307Z,21.15
2019-06-10T17:26:00.481Z,21.09
2019-06-10T17:28:29.785Z,21.06
2019-06-10T17:30:56.267Z,21.12
2019-06-10T17:33:24.446Z,20.94
2019-06-10T17:35:52.455Z,21.12
2019-06-10T17:38:20.534Z,21.18
2019-06-10T17:40:46.871Z,21.21
2019-06-10T17:43:13.189Z,21.06
2019-06-10T17:45:42.082Z,20.97
2019-06-10T17:48:07.956Z,20.68
2019-06-10T17:50:34.176Z,20.39
2019-06-10T17:53:02.463Z,20.19
2019-06-10T17:55:29.609Z,20.14
2019-06-10T17:57:57.200Z,20.00
2019-06-10T18:00:26.146Z,19.83
2019-06-10T18:02:53.565Z,19.64
2019-06-10T18:05:22.043Z,19.76
2019-06-10T18:07:48.143Z,19.81
2019-06-10T18:10:14.539Z,19.87
2019-06-10T18:12:42.309Z,19.82
2019-06-10T18:15:09.228Z,19.85
2019-06-10T18:17:37.531Z,19.90
2019-06-10T18:20:04.662Z,20.00
2019-06-10T18:22:33.458Z,19.41
2019-06-10T18:24:59.201Z,19.02
2019-06-10T18:27:26.879Z,18.84
2019-06-10T18:29:53.286Z,18.46
2019-06-10T18:32:19.654Z,17.98
2019-06-10T18:34:45.985Z,17.62
2019-06-10T18:37:12.302Z,17.61
2019-06-10T18:39:39.846Z,17.58
2019-06-10T18:42:06.098Z,17.61
2019-06-10T18:44:34.393Z,17.64
2019-06-10T18:47:03.015Z,17.75
2019-06-10T18:49:30.046Z,17.73
2019-06-10T18:51:56.547Z,17.70
2019-06-10T18:54:22.825Z,17.81
2019-06-10T18:56:52.406Z,17.93
2019-06-10T18:59:21.234Z,18.05
2019-06-10T19:01:46.520Z,18.16
2019-06-10T19:04:13.157Z,18.23
2019-06-10T19:06:39.922Z,18.21
2019-06-10T19:09:07.271Z,18.05
2019-06-10T19:11:34.207Z,18.00
2019-06-10T19:14:03.303Z,17.97
2019-06-10T19:16:32.247Z,18.06
2019-06-10T19:18:57.984Z,18.24
2019-06-10T19:21:24.190Z,18.39
2019-06-10T19:23:52.983Z,18.42
2019-06-10T19:26:18.674Z,18.43
2019-06-10T19:28:45.435Z,18.46
2019-06-10T19:31:11.975Z,18.53
2019-06-10T19:33:39.274Z,18.52
2019-06-10T19:36:06.464Z,18.48
2019-06-10T19:38:35.143Z,18.48
2019-06-10T19:41:02.745Z,18.53
2019-06-10T19:43:29.184Z,18.43
2019-06-10T19:45:55.450Z,18.45
2019-06-10T19:48:21.786Z,18.36
2019-06-10T19:50:50.469Z,18.21
2019-06-10T19:53:16.515Z,18.30
2019-06-10T19:55:45.965Z,18.33
2019-06-10T19:58:13.400Z,18.34
2019-06-10T20:00:39.773Z,18.39
2019-06-10T20:03:06.173Z,18.44
2019-06-10T20:05:34.412Z,18.47
2019-06-10T20:08:02.808Z,18.53
2019-06-10T20:10:28.768Z,18.46
2019-06-10T20:12:55.099Z,18.49
2019-06-10T20:15:23.713Z,18.53
2019-06-10T20:17:52.351Z,18.57
2019-06-10T20:20:18.581Z,18.44
2019-06-10T20:22:46.484Z,18.31
2019-06-10T20:25:13.319Z,18.19
2019-06-10T20:27:39.758Z,18.23
2019-06-10T20:30:21.619Z,18.31
2019-06-10T20:32:41.540Z,18.30
2019-06-10T20:35:07.337Z,18.05
2019-06-10T20:37:33.690Z,17.96
2019-06-10T20:39:59.801Z,17.95
2019-06-10T20:42:26.171Z,17.86
2019-06-10T20:44:52.390Z,17.75
2019-06-10T20:47:18.541Z,17.57
2019-06-10T20:49:46.801Z,17.51
2019-06-10T20:52:14.919Z,17.53
2019-06-10T20:54:43.411Z,17.53
2019-06-10T20:57:12.043Z,17.52
2019-06-10T20:59:39.069Z,17.58
2019-06-10T21:02:05.614Z,17.65
2019-06-10T21:04:32.373Z,17.75
2019-06-10T21:07:02.309Z,17.80
2019-06-10T21:09:28.769Z,17.86
2019-06-10T21:11:55.313Z,17.92
2019-06-10T21:14:22.916Z,17.98
2019-06-10T21:16:51.086Z,17.96
2019-06-10T21:19:17.544Z,17.91
2019-06-10T21:21:45.670Z,17.94
2019-06-10T21:24:12.624Z,17.83
2019-06-10T21:26:39.068Z,17.95
2019-06-10T21:29:05.466Z,17.95
2019-06-10T21:31:32.558Z,18.15
2019-06-10T21:33:59.114Z,18.18
2019-06-10T21:36:25.343Z,18.15
2019-06-10T21:38:55.420Z,18.13
2019-06-10T21:41:19.822Z,18.10
2019-06-10T21:43:49.700Z,18.21
2019-06-10T21:46:14.507Z,18.31
2019-06-10T21:48:43.818Z,18.31
2019-06-10T21:51:08.861Z,18.35
2019-06-10T21:53:35.355Z,18.38
2019-06-10T21:56:01.596Z,18.23
2019-06-10T21:58:28.053Z,18.17
2019-06-10T22:01:08.528Z,18.20
2019-06-10T22:03:23.585Z,18.04
2019-06-10T22:05:49.736Z,18.06
2019-06-10T22:08:16.203Z,18.11
2019-06-10T22:10:44.093Z,18.08
2019-06-10T22:13:12.282Z,18.02
2019-06-10T22:15:38.580Z,17.99
2019-06-10T22:18:07.114Z,18.11
2019-06-10T22:20:33.341Z,18.12
2019-06-10T22:23:02.372Z,17.83
2019-06-10T22:25:27.903Z,17.83
2019-06-10T22:27:54.225Z,17.83
2019-06-10T22:30:22.714Z,17.79
2019-06-10T22:32:49.357Z,17.70
2019-06-10T22:35:15.546Z,17.72
2019-06-10T22:37:41.725Z,17.80
2019-06-10T22:40:08.434Z,17.91
2019-06-10T22:42:34.963Z,17.83
2019-06-10T22:45:03.992Z,17.82
2019-06-10T22:47:29.413Z,17.86
2019-06-10T22:49:57.972Z,17.92
2019-06-10T22:52:23.970Z,17.84
2019-06-10T22:54:52.172Z,17.78
2019-06-10T22:57:18.252Z,17.85
2019-06-10T22:59:44.362Z,17.88
2019-06-10T23:02:12.992Z,17.96
2019-06-10T23:04:38.602Z,18.00
2019-06-10T23:07:04.795Z,17.82
2019-06-10T23:09:31.371Z,17.64
2019-06-10T23:11:58.006Z,17.59
2019-06-10T23:14:25.521Z,17.41
2019-06-10T23:16:54.064Z,17.38
2019-06-10T23:19:19.953Z,17.35
2019-06-10T23:21:46.064Z,17.10
2019-06-10T23:24:13.483Z,16.96
2019-06-10T23:26:42.465Z,17.04
2019-06-10T23:29:08.837Z,17.07
2019-06-10T23:31:48.701Z,17.05
2019-06-10T23:34:03.298Z,17.03
2019-06-10T23:36:29.630Z,16.87
2019-06-10T23:38:57.061Z,16.65
2019-06-10T23:41:23.438Z,16.35
2019-06-10T23:43:50.866Z,16.41
2019-06-10T23:46:17.301Z,16.36
2019-06-10T23:48:43.391Z,16.31
2019-06-10T23:51:11.984Z,16.33
2019-06-10T23:53:37.626Z,16.37
2019-06-10T23:56:05.075Z,16.40
2019-06-10T23:58:32.874Z,16.28
